createdAt,value
2019-04-07T00:01:32.959Z,37.03
2019-04-07T00:04:02.310Z,40.10
2019-04-07T00:06:31.822Z,39.63
2019-04-07T00:09:01.717Z,40.77
2019-04-07T00:11:31.338Z,39.13
2019-04-07T00:14:00.801Z,38.87
2019-04-07T00:16:30.895Z,40.63
2019-04-07T00:19:00.305Z,39.43
2019-04-07T00:21:30.175Z,39.13
2019-04-07T00:24:01.816Z,38.10
2019-04-07T00:26:31.170Z,40.27
2019-04-07T00:29:01.580Z,37.83
2019-04-07T00:31:31.239Z,38.83
2019-04-07T00:34:00.816Z,38.53
2019-04-07T00:36:30.211Z,41.37
2019-04-07T00:38:59.531Z,40.83
2019-04-07T00:41:28.869Z,39.07
2019-04-07T00:44:00.035Z,40.13
2019-04-07T00:46:29.586Z,38.47
2019-04-07T00:48:59.419Z,37.10
2019-04-07T00:51:28.901Z,38.40
2019-04-07T00:53:58.280Z,41.00
2019-04-07T00:56:27.973Z,42.13
2019-04-07T00:58:58.002Z,36.93
2019-04-07T01:01:27.343Z,38.03
2019-04-07T01:03:56.883Z,40.00
2019-04-07T01:06:26.873Z,41.30
2019-04-07T01:08:56.877Z,38.30
2019-04-07T01:11:26.715Z,38.70
2019-04-07T01:13:56.192Z,38.27
2019-04-07T01:16:26.221Z,37.83
2019-04-07T01:18:55.640Z,36.43
2019-04-07T01:21:25.183Z,39.20
2019-04-07T01:23:54.541Z,37.93
2019-04-07T01:26:23.917Z,35.10
2019-04-07T01:28:54.469Z,38.57
2019-04-07T01:31:24.325Z,35.70
2019-04-07T01:33:54.295Z,37.37
2019-04-07T01:36:23.817Z,35.27
2019-04-07T01:38:53.320Z,36.27
2019-04-07T01:41:29.967Z,37.57
2019-04-07T01:44:00.948Z,35.03
2019-04-07T01:46:44.027Z,37.40
2019-04-07T01:49:30.253Z,36.27
2019-04-07T01:52:01.882Z,35.77
2019-04-07T01:54:33.029Z,35.03
2019-04-07T01:57:10.270Z,35.77
2019-04-07T01:59:41.776Z,37.03
2019-04-07T02:02:29.163Z,37.33
2019-04-07T02:05:06.751Z,35.77
2019-04-07T02:07:50.070Z,36.53
2019-04-07T02:10:24.160Z,36.60
2019-04-07T02:12:55.634Z,35.17
2019-04-07T02:15:26.760Z,33.97
2019-04-07T02:17:58.205Z,33.07
2019-04-07T02:20:58.976Z,33.60
2019-04-07T02:23:47.184Z,32.97
2019-04-07T02:26:21.477Z,33.17
2019-04-07T02:28:52.642Z,33.80
2019-04-07T02:31:23.618Z,35.27
2019-04-07T02:33:54.589Z,35.53
2019-04-07T02:36:31.977Z,35.67
2019-04-07T02:39:18.331Z,33.10
2019-04-07T02:42:05.778Z,33.70
2019-04-07T02:44:42.914Z,35.03
2019-04-07T02:47:31.190Z,36.03
2019-04-07T02:50:05.220Z,33.70
2019-04-07T02:52:36.942Z,32.63
2019-04-07T02:55:14.356Z,35.37
2019-04-07T02:57:54.522Z,34.23
2019-04-07T03:00:25.507Z,35.33
2019-04-07T03:03:05.430Z,33.43
2019-04-07T03:05:36.415Z,33.60
2019-04-07T03:08:23.829Z,34.23
2019-04-07T03:10:58.678Z,36.03
2019-04-07T03:13:30.298Z,33.20
2019-04-07T03:16:04.509Z,33.37
2019-04-07T03:18:40.951Z,33.50
2019-04-07T03:21:17.948Z,33.13
2019-04-07T03:24:01.664Z,31.33
2019-04-07T03:26:32.657Z,34.03
2019-04-07T03:29:03.716Z,35.03
2019-04-07T03:31:45.975Z,33.47
2019-04-07T03:34:31.348Z,33.90
2019-04-07T03:37:18.388Z,30.33
2019-04-07T03:39:33.893Z,33.80
2019-04-07T03:42:10.811Z,35.10
2019-04-07T03:44:44.850Z,31.40
2019-04-07T03:47:32.065Z,31.57
2019-04-07T03:50:19.260Z,31.50
2019-04-07T03:52:54.377Z,31.47
2019-04-07T03:55:31.560Z,30.47
2019-04-07T03:58:05.478Z,33.07
2019-04-07T04:01:10.444Z,33.57
2019-04-07T04:03:47.842Z,33.37
2019-04-07T04:06:21.861Z,32.07
2019-04-07T04:08:53.068Z,34.43
2019-04-07T04:11:40.647Z,33.70
2019-04-07T04:14:18.363Z,31.73
2019-04-07T04:16:49.483Z,32.40
2019-04-07T04:19:19.147Z,33.70
2019-04-07T04:21:48.497Z,33.43
2019-04-07T04:24:18.563Z,32.30
2019-04-07T04:26:48.170Z,33.53
2019-04-07T04:29:17.546Z,31.43
2019-04-07T04:31:47.403Z,31.80
2019-04-07T04:34:17.339Z,33.53
2019-04-07T04:36:47.877Z,33.13
2019-04-07T04:39:19.702Z,33.63
2019-04-07T04:41:49.069Z,36.73
2019-04-07T04:44:18.751Z,36.30
2019-04-07T04:46:48.632Z,34.53
2019-04-07T04:49:19.703Z,33.47
2019-04-07T04:51:50.246Z,32.07
2019-04-07T04:54:19.582Z,34.40
2019-04-07T04:56:48.942Z,34.47
2019-04-07T04:59:18.334Z,32.63
2019-04-07T05:01:47.819Z,34.33
2019-04-07T05:04:17.459Z,36.10
2019-04-07T05:06:47.748Z,33.03
2019-04-07T05:09:18.028Z,34.80
2019-04-07T05:11:47.479Z,34.43
2019-04-07T05:14:16.834Z,35.70
2019-04-07T05:16:46.178Z,34.87
2019-04-07T05:19:15.520Z,36.83
2019-04-07T05:21:44.874Z,36.40
2019-04-07T05:24:14.698Z,35.73
2019-04-07T05:26:44.061Z,34.17
2019-04-07T05:29:13.751Z,35.00
2019-04-07T05:31:43.870Z,32.37
2019-04-07T05:34:16.764Z,35.13
2019-04-07T05:36:44.336Z,34.57
2019-04-07T05:39:13.679Z,34.70
2019-04-07T05:41:43.828Z,33.90
2019-04-07T05:44:13.541Z,35.20
2019-04-07T05:46:43.468Z,33.57
2019-04-07T05:49:15.710Z,32.67
2019-04-07T05:51:44.617Z,32.63
2019-04-07T05:54:16.918Z,33.83
2019-04-07T05:56:45.122Z,33.10
2019-04-07T05:59:14.784Z,34.67
2019-04-07T06:01:45.557Z,33.17
2019-04-07T06:04:18.310Z,32.83
2019-04-07T06:06:46.358Z,30.60
2019-04-07T06:09:19.770Z,33.07
2019-04-07T06:11:46.967Z,34.87
2019-04-07T06:14:17.226Z,34.70
2019-04-07T06:16:46.922Z,35.33
2019-04-07T06:19:17.029Z,35.10
2019-04-07T06:21:48.745Z,36.53
2019-04-07T06:24:18.091Z,35.17
2019-04-07T06:26:49.944Z,35.20
2019-04-07T06:29:20.021Z,36.27
2019-04-07T06:31:49.567Z,35.80
2019-04-07T06:34:18.984Z,36.07
2019-04-07T06:36:53.552Z,34.10
2019-04-07T06:39:20.085Z,33.90
2019-04-07T06:41:49.505Z,32.87
2019-04-07T06:44:22.187Z,36.17
2019-04-07T06:46:51.585Z,35.63
2019-04-07T06:49:28.408Z,35.77
2019-04-07T06:52:10.710Z,35.67
2019-04-07T06:54:50.070Z,33.60
2019-04-07T06:57:23.349Z,32.00
2019-04-07T07:00:03.300Z,34.00
2019-04-07T07:02:46.285Z,34.23
2019-04-07T07:05:26.748Z,31.93
2019-04-07T07:07:57.811Z,33.93
2019-04-07T07:10:34.827Z,32.73
2019-04-07T07:13:28.663Z,32.77
2019-04-07T07:15:49.408Z,34.57
2019-04-07T07:18:22.914Z,32.70
2019-04-07T07:21:08.171Z,33.53
2019-04-07T07:23:47.666Z,33.37
2019-04-07T07:26:13.445Z,32.23
2019-04-07T07:28:44.586Z,32.10
2019-04-07T07:31:14.309Z,33.47
2019-04-07T07:33:44.689Z,31.37
2019-04-07T07:36:17.301Z,32.13
2019-04-07T07:38:55.431Z,29.07
2019-04-07T07:41:19.141Z,29.83
2019-04-07T07:43:48.142Z,31.00
2019-04-07T07:46:20.555Z,30.60
2019-04-07T07:48:48.654Z,31.47
2019-04-07T07:51:18.008Z,32.67
2019-04-07T07:53:47.350Z,31.47
2019-04-07T07:56:17.002Z,32.57
2019-04-07T07:58:47.208Z,31.20
2019-04-07T08:01:17.820Z,32.20
2019-04-07T08:03:51.699Z,31.33
2019-04-07T08:06:19.370Z,40.03
2019-04-07T08:08:48.877Z,36.50
2019-04-07T08:11:18.766Z,30.23
2019-04-07T08:13:48.141Z,43.73
2019-04-07T08:16:17.520Z,30.53
2019-04-07T08:18:47.387Z,30.13
2019-04-07T08:21:19.056Z,29.60
2019-04-07T08:23:48.195Z,28.07
2019-04-07T08:26:18.238Z,28.53
2019-04-07T08:28:48.186Z,27.80
2019-04-07T08:31:20.532Z,27.67
2019-04-07T08:33:51.259Z,25.53
2019-04-07T08:36:19.965Z,28.23
2019-04-07T08:38:51.795Z,26.00
2019-04-07T08:41:20.492Z,24.93
2019-04-07T08:43:53.272Z,24.33
2019-04-07T08:46:21.910Z,23.13
2019-04-07T08:48:54.296Z,22.20
2019-04-07T08:51:24.220Z,23.53
2019-04-07T08:53:54.835Z,22.90
2019-04-07T08:56:26.469Z,23.43
2019-04-07T08:58:55.396Z,21.53
2019-04-07T09:01:25.203Z,23.00
2019-04-07T09:03:56.073Z,21.30
2019-04-07T09:06:28.458Z,21.37
2019-04-07T09:08:56.527Z,21.20
2019-04-07T09:11:28.303Z,22.17
2019-04-07T09:13:58.192Z,21.30
2019-04-07T09:16:30.195Z,20.57
2019-04-07T09:19:13.730Z,21.90
2019-04-07T09:21:50.266Z,20.00
2019-04-07T09:24:20.229Z,21.07
2019-04-07T09:27:09.091Z,20.87
2019-04-07T09:29:58.944Z,19.90
2019-04-07T09:32:33.428Z,20.97
2019-04-07T09:35:07.053Z,18.70
2019-04-07T09:37:54.893Z,19.37
2019-04-07T09:40:28.890Z,19.23
2019-04-07T09:43:01.075Z,19.23
2019-04-07T09:45:32.437Z,20.00
2019-04-07T09:48:04.074Z,18.57
2019-04-07T09:50:41.947Z,19.10
2019-04-07T09:53:25.195Z,18.23
2019-04-07T09:56:12.949Z,18.30
2019-04-07T09:58:50.301Z,18.07
2019-04-07T10:01:36.882Z,17.90
2019-04-07T10:04:24.150Z,17.15
2019-04-07T10:07:15.327Z,17.48
2019-04-07T10:10:10.766Z,16.82
2019-04-07T10:12:37.064Z,16.35
2019-04-07T10:15:20.176Z,17.48
2019-04-07T10:18:00.531Z,17.20
2019-04-07T10:20:34.190Z,15.50
2019-04-07T10:23:15.050Z,15.85
2019-04-07T10:26:02.752Z,16.52
2019-04-07T10:28:33.755Z,16.20
2019-04-07T10:31:11.338Z,17.45
2019-04-07T10:33:54.697Z,15.23
2019-04-07T10:36:43.973Z,15.43
2019-04-07T10:39:27.550Z,14.63
2019-04-07T10:42:07.579Z,14.70
2019-04-07T10:44:38.580Z,18.45
2019-04-07T10:47:09.643Z,16.30
2019-04-07T10:49:40.672Z,15.30
2019-04-07T10:52:14.816Z,13.45
2019-04-07T10:54:45.841Z,13.08
2019-04-07T10:57:34.421Z,12.68
2019-04-07T11:00:12.162Z,11.57
2019-04-07T11:02:52.811Z,11.70
2019-04-07T11:05:24.791Z,12.35
2019-04-07T11:07:55.907Z,11.73
2019-04-07T11:10:34.286Z,10.72
2019-04-07T11:13:03.113Z,10.78
2019-04-07T11:15:49.827Z,10.03
2019-04-07T11:18:21.015Z,11.65
2019-04-07T11:21:10.753Z,10.13
2019-04-07T11:23:47.672Z,10.90
2019-04-07T11:26:18.664Z,10.00
2019-04-07T11:28:59.387Z,10.48
2019-04-07T11:31:32.171Z,9.88
2019-04-07T11:34:06.258Z,10.03
2019-04-07T11:36:40.718Z,10.53
2019-04-07T11:39:21.540Z,9.48
2019-04-07T11:41:52.766Z,9.85
2019-04-07T11:44:23.794Z,9.93
2019-04-07T11:47:09.886Z,9.63
2019-04-07T11:49:45.036Z,9.58
2019-04-07T11:52:23.509Z,9.25
2019-04-07T11:55:10.248Z,9.30
2019-04-07T11:57:44.764Z,8.83
2019-04-07T12:00:17.176Z,9.83
2019-04-07T12:02:51.911Z,8.80
2019-04-07T12:05:26.816Z,8.93
2019-04-07T12:08:14.072Z,8.65
2019-04-07T12:11:04.914Z,8.85
2019-04-07T12:13:44.872Z,9.95
2019-04-07T12:16:22.001Z,8.40
2019-04-07T12:18:53.682Z,8.78
2019-04-07T12:21:39.129Z,9.40
2019-04-07T12:24:16.327Z,9.70
2019-04-07T12:26:47.369Z,9.33
2019-04-07T12:29:24.460Z,9.90
2019-04-07T12:31:58.184Z,10.00
2019-04-07T12:34:48.881Z,8.95
2019-04-07T12:37:39.658Z,9.70
2019-04-07T12:40:22.444Z,9.35
2019-04-07T12:42:52.379Z,9.25
2019-04-07T12:45:36.104Z,10.32
2019-04-07T12:48:25.858Z,9.83
2019-04-07T12:51:13.701Z,9.98
2019-04-07T12:53:47.903Z,8.78
2019-04-07T12:56:18.985Z,9.18
2019-04-07T12:59:08.018Z,8.65
2019-04-07T13:01:41.364Z,9.33
2019-04-07T13:04:17.913Z,8.78
2019-04-07T13:06:52.365Z,9.68
2019-04-07T13:09:39.217Z,8.83
2019-04-07T13:12:28.974Z,8.60
2019-04-07T13:15:03.418Z,10.08
2019-04-07T13:17:37.585Z,8.55
2019-04-07T13:20:10.630Z,10.00
2019-04-07T13:22:53.922Z,8.65
2019-04-07T13:25:25.164Z,9.33
2019-04-07T13:27:58.895Z,9.10
2019-04-07T13:30:39.147Z,8.68
2019-04-07T13:33:29.448Z,8.10
2019-04-07T13:36:17.130Z,9.40
2019-04-07T13:38:54.499Z,8.70
2019-04-07T13:41:38.722Z,9.08
2019-04-07T13:44:07.215Z,9.70
2019-04-07T13:46:53.290Z,9.50
2019-04-07T13:49:41.329Z,8.70
2019-04-07T13:52:22.207Z,8.93
2019-04-07T13:55:05.160Z,7.80
2019-04-07T13:57:54.853Z,9.30
2019-04-07T14:00:24.042Z,9.15
2019-04-07T14:02:55.076Z,9.03
2019-04-07T14:05:27.086Z,8.75
2019-04-07T14:08:04.560Z,8.18
2019-04-07T14:10:51.628Z,9.48
2019-04-07T14:13:22.783Z,8.38
2019-04-07T14:15:59.722Z,8.53
2019-04-07T14:18:45.067Z,10.13
2019-04-07T14:21:32.441Z,8.63
2019-04-07T14:24:21.855Z,8.90
2019-04-07T14:26:53.131Z,8.80
2019-04-07T14:29:36.945Z,8.93
2019-04-07T14:32:26.323Z,8.18
2019-04-07T14:34:57.636Z,8.45
2019-04-07T14:37:28.638Z,8.03
2019-04-07T14:40:03.641Z,8.73
2019-04-07T14:42:35.213Z,7.55
2019-04-07T14:45:14.504Z,8.78
2019-04-07T14:47:46.310Z,8.83
2019-04-07T14:50:20.061Z,8.53
2019-04-07T14:52:54.532Z,8.33
2019-04-07T14:55:41.945Z,8.48
2019-04-07T14:58:29.175Z,7.83
2019-04-07T15:01:18.167Z,7.40
2019-04-07T15:03:48.050Z,7.62
2019-04-07T15:06:17.426Z,7.37
2019-04-07T15:09:01.207Z,9.30
2019-04-07T15:11:39.389Z,8.33
2019-04-07T15:14:11.237Z,8.90
2019-04-07T15:16:39.899Z,7.75
2019-04-07T15:19:09.637Z,7.53
2019-04-07T15:21:40.098Z,7.17
2019-04-07T15:24:10.112Z,6.80
2019-04-07T15:26:40.092Z,6.87
2019-04-07T15:29:10.782Z,7.50
2019-04-07T15:31:40.592Z,6.95
2019-04-07T15:34:11.896Z,7.12
2019-04-07T15:36:41.455Z,7.22
2019-04-07T15:39:11.014Z,8.30
2019-04-07T15:41:42.506Z,8.53
2019-04-07T15:44:14.119Z,8.80
2019-04-07T15:46:43.781Z,9.10
2019-04-07T15:49:13.138Z,8.48
2019-04-07T15:51:43.201Z,8.65
2019-04-07T15:54:13.459Z,8.83
2019-04-07T15:56:45.422Z,8.78
2019-04-07T15:59:14.706Z,9.60
2019-04-07T16:01:44.949Z,9.03
2019-04-07T16:04:14.361Z,10.23
2019-04-07T16:06:47.114Z,9.28
2019-04-07T16:09:29.643Z,9.88
2019-04-07T16:11:47.400Z,10.08
2019-04-07T16:14:17.657Z,10.48
2019-04-07T16:16:47.304Z,11.33
2019-04-07T16:19:21.964Z,10.25
2019-04-07T16:21:49.392Z,10.63
2019-04-07T16:24:21.451Z,9.40
2019-04-07T16:26:49.861Z,10.08
2019-04-07T16:29:20.331Z,9.23
2019-04-07T16:31:51.742Z,8.88
2019-04-07T16:34:21.421Z,8.55
2019-04-07T16:36:52.220Z,9.35
2019-04-07T16:39:21.837Z,8.10
2019-04-07T16:41:51.198Z,8.13
2019-04-07T16:44:20.572Z,8.48
2019-04-07T16:46:54.370Z,8.13
2019-04-07T16:49:21.648Z,7.78
2019-04-07T16:51:51.567Z,8.83
2019-04-07T16:54:20.998Z,8.55
2019-04-07T16:56:54.732Z,8.55
2019-04-07T16:59:22.035Z,8.58
2019-04-07T17:01:51.473Z,8.25
2019-04-07T17:04:21.222Z,7.72
2019-04-07T17:07:00.271Z,7.78
2019-04-07T17:09:25.067Z,7.67
2019-04-07T17:11:53.609Z,8.05
2019-04-07T17:14:23.693Z,7.95
2019-04-07T17:16:53.657Z,7.42
2019-04-07T17:19:25.656Z,7.70
2019-04-07T17:21:55.393Z,6.85
2019-04-07T17:24:27.207Z,7.12
2019-04-07T17:26:56.297Z,7.58
2019-04-07T17:29:28.369Z,7.62
2019-04-07T17:32:01.195Z,8.08
2019-04-07T17:34:28.217Z,7.12
2019-04-07T17:36:57.721Z,8.13
2019-04-07T17:39:28.751Z,7.58
2019-04-07T17:41:59.456Z,7.45
2019-04-07T17:44:45.499Z,7.37
2019-04-07T17:47:36.454Z,7.83
2019-04-07T17:50:30.445Z,7.60
2019-04-07T17:53:05.591Z,7.40
2019-04-07T17:55:42.138Z,7.75
2019-04-07T17:58:18.997Z,7.30
2019-04-07T18:00:59.738Z,6.60
2019-04-07T18:03:34.647Z,7.45
2019-04-07T18:06:22.435Z,10.05
2019-04-07T18:09:03.956Z,8.28
2019-04-07T18:11:28.963Z,7.80
2019-04-07T18:14:07.892Z,7.80
2019-04-07T18:16:55.389Z,7.45
2019-04-07T18:19:43.112Z,9.13
2019-04-07T18:22:24.761Z,8.75
2019-04-07T18:25:01.964Z,8.35
2019-04-07T18:27:38.301Z,8.25
2019-04-07T18:30:10.454Z,8.10
2019-04-07T18:32:47.600Z,8.48
2019-04-07T18:35:26.505Z,9.63
2019-04-07T18:38:13.335Z,9.58
2019-04-07T18:41:01.678Z,9.30
2019-04-07T18:43:50.730Z,8.73
2019-04-07T18:46:16.846Z,9.13
2019-04-07T18:48:47.861Z,10.15
2019-04-07T18:51:18.813Z,8.48
2019-04-07T18:53:53.226Z,8.38
2019-04-07T18:56:33.283Z,7.73
2019-04-07T18:59:13.323Z,8.20
2019-04-07T19:01:50.023Z,8.63
2019-04-07T19:04:33.234Z,10.20
2019-04-07T19:07:04.297Z,9.03
2019-04-07T19:09:35.748Z,8.80
2019-04-07T19:12:16.715Z,9.33
2019-04-07T19:15:02.370Z,8.40
2019-04-07T19:17:36.782Z,9.60
2019-04-07T19:20:12.990Z,9.33
2019-04-07T19:22:51.330Z,9.63
2019-04-07T19:25:22.341Z,9.17
2019-04-07T19:28:00.996Z,9.83
2019-04-07T19:30:51.627Z,8.37
2019-04-07T19:33:26.856Z,8.87
2019-04-07T19:36:00.952Z,9.27
2019-04-07T19:38:31.955Z,9.60
2019-04-07T19:41:18.716Z,8.93
2019-04-07T19:43:50.293Z,9.03
2019-04-07T19:46:37.193Z,9.50
2019-04-07T19:49:13.096Z,8.90
2019-04-07T19:52:00.633Z,9.67
2019-04-07T19:54:42.075Z,9.23
2019-04-07T19:57:31.221Z,9.13
2019-04-07T20:00:10.979Z,10.47
2019-04-07T20:02:57.373Z,10.53
2019-04-07T20:05:28.478Z,9.63
2019-04-07T20:08:05.734Z,9.37
2019-04-07T20:10:42.894Z,10.07
2019-04-07T20:13:34.406Z,9.83
2019-04-07T20:16:05.284Z,9.57
2019-04-07T20:18:58.177Z,10.07
2019-04-07T20:21:39.096Z,10.20
2019-04-07T20:24:07.387Z,10.33
2019-04-07T20:26:38.400Z,10.20
2019-04-07T20:29:12.178Z,10.53
2019-04-07T20:31:58.231Z,10.93
2019-04-07T20:34:29.675Z,25.63
2019-04-07T20:37:07.193Z,17.13
2019-04-07T20:39:41.560Z,13.13
2019-04-07T20:42:15.874Z,12.10
2019-04-07T20:45:01.842Z,9.83
2019-04-07T20:47:42.437Z,9.57
2019-04-07T20:50:22.674Z,9.60
2019-04-07T20:53:16.751Z,9.93
2019-04-07T20:55:50.769Z,9.30
2019-04-07T20:58:46.365Z,9.20
2019-04-07T21:01:20.809Z,8.87
2019-04-07T21:03:51.638Z,9.07
2019-04-07T21:06:38.353Z,8.67
2019-04-07T21:09:22.475Z,8.87
2019-04-07T21:12:02.981Z,19.83
2019-04-07T21:14:50.375Z,15.30
2019-04-07T21:17:21.835Z,19.23
2019-04-07T21:20:10.765Z,13.87
2019-04-07T21:23:00.669Z,11.13
2019-04-07T21:25:41.682Z,8.73
2019-04-07T21:28:24.699Z,8.27
2019-04-07T21:31:01.452Z,11.10
2019-04-07T21:33:49.627Z,11.37
2019-04-07T21:36:32.500Z,9.40
2019-04-07T21:39:21.662Z,8.77
2019-04-07T21:42:10.301Z,8.93
2019-04-07T21:44:59.891Z,9.17
2019-04-07T21:47:31.813Z,8.63
2019-04-07T21:50:12.052Z,9.90
2019-04-07T21:52:46.174Z,9.17
2019-04-07T21:55:17.155Z,9.67
2019-04-07T21:58:00.924Z,9.83
2019-04-07T22:00:32.935Z,10.13
2019-04-07T22:03:13.418Z,9.60
2019-04-07T22:05:57.850Z,9.23
2019-04-07T22:08:27.265Z,8.93
2019-04-07T22:10:57.360Z,9.77
2019-04-07T22:13:26.729Z,9.77
2019-04-07T22:16:00.735Z,10.73
2019-04-07T22:18:27.240Z,11.23
2019-04-07T22:20:57.036Z,11.40
2019-04-07T22:23:29.516Z,10.37
2019-04-07T22:25:57.511Z,10.27
2019-04-07T22:28:28.490Z,9.43
2019-04-07T22:30:57.935Z,9.53
2019-04-07T22:33:30.763Z,10.27
2019-04-07T22:35:58.408Z,9.47
2019-04-07T22:38:27.756Z,9.70
2019-04-07T22:40:57.146Z,10.07
2019-04-07T22:43:26.483Z,10.53
2019-04-07T22:46:07.103Z,9.90
2019-04-07T22:48:28.169Z,9.13
2019-04-07T22:50:58.880Z,10.67
2019-04-07T22:53:30.125Z,10.40
2019-04-07T22:55:59.792Z,10.50
2019-04-07T22:58:29.837Z,10.73
2019-04-07T23:00:59.496Z,10.60
2019-04-07T23:03:29.368Z,9.77
2019-04-07T23:05:58.862Z,10.23
2019-04-07T23:08:28.529Z,10.17
2019-04-07T23:10:58.076Z,11.17
2019-04-07T23:13:28.001Z,10.50
2019-04-07T23:16:10.007Z,10.97
2019-04-07T23:18:28.450Z,10.83
2019-04-07T23:20:57.952Z,10.97
2019-04-07T23:23:28.129Z,10.67
2019-04-07T23:25:57.768Z,10.43
2019-04-07T23:28:27.258Z,10.37
2019-04-07T23:30:56.947Z,11.83
2019-04-07T23:33:26.402Z,10.77
2019-04-07T23:35:55.756Z,10.43
2019-04-07T23:38:26.080Z,10.33
2019-04-07T23:40:55.683Z,10.20
2019-04-07T23:43:25.063Z,10.60
2019-04-07T23:45:54.421Z,10.43
2019-04-07T23:48:24.295Z,11.17
2019-04-07T23:50:54.053Z,10.57
2019-04-07T23:54:10.956Z,10.67
2019-04-07T23:56:43.621Z,11.07
2019-04-07T23:59:14.605Z,10.33
